Time;durP1;ratioP1;P1;durP2;ratioP2;P2;SDS_P1;SDS_P2;PMS_P1;PMS_P2;Temp;Humidity;BMP_temperature;BMP_pressure;BME280_temperature;BME280_humidity;BME280_pressure;Samples;Min_cycle;Max_cycle;Signal;HPM_P1;HPM_P2
2022/11/16 00:03:03;;;;;;;5.45;4.03;;;12.10;99.90;;;;;;10083050;28;20021;-64
2022/11/16 00:07:54;;;;;;;6.13;3.22;;;12.10;99.90;;;;;;10105640;28;20098;-64
2022/11/16 00:12:44;;;;;;;3.92;3.00;;;12.10;99.90;;;;;;10094883;28;20067;-59
2022/11/16 00:17:35;;;;;;;6.05;3.28;;;12.10;99.90;;;;;;10107708;28;20040;-62
2022/11/16 00:22:26;;;;;;;5.07;3.40;;;12.10;99.90;;;;;;10111880;28;20296;-60
2022/11/16 00:27:16;;;;;;;5.78;3.58;;;12.10;99.90;;;;;;10090456;28;20320;-60
2022/11/16 00:32:07;;;;;;;6.25;3.75;;;12.00;99.90;;;;;;10099001;28;20410;-59
2022/11/16 00:36:58;;;;;;;5.40;3.20;;;12.00;99.90;;;;;;10099300;28;20076;-59
2022/11/16 00:41:49;;;;;;;6.05;4.00;;;12.10;99.90;;;;;;10096631;28;20479;-60
2022/11/16 00:46:40;;;;;;;6.18;2.85;;;12.10;99.90;;;;;;10084689;28;20036;-61
2022/11/16 00:51:31;;;;;;;4.03;2.92;;;12.00;99.90;;;;;;10086617;28;20032;-60
2022/11/16 00:56:22;;;;;;;4.18;3.00;;;12.00;99.90;;;;;;10081537;28;20478;-60
2022/11/16 01:01:12;;;;;;;5.68;3.28;;;12.10;99.90;;;;;;10078124;28;20045;-60
2022/11/16 01:06:06;;;;;;;5.60;2.97;;;12.00;99.90;;;;;;10096011;28;20040;-62
2022/11/16 01:12:07;;;;;;;4.20;3.08;;;11.90;99.90;;;;;;10101302;28;20097;-59
2022/11/16 01:16:08;;;;;;;6.80;3.40;;;12.00;99.90;;;;;;10083685;28;20041;-60
2022/11/16 01:20:59;;;;;;;7.30;3.97;;;12.00;99.90;;;;;;10070984;28;20045;-60
2022/11/16 01:26:02;;;;;;;8.35;3.70;;;12.00;99.90;;;;;;10076542;28;20040;-60
2022/11/16 01:30:52;;;;;;;6.65;3.63;;;11.90;99.90;;;;;;10068297;28;20013;-59
2022/11/16 01:35:43;;;;;;;6.35;3.28;;;11.80;99.90;;;;;;10071586;28;20039;-59
2022/11/16 01:40:34;;;;;;;6.72;3.45;;;11.90;99.90;;;;;;10084696;28;20382;-59
2022/11/16 01:45:40;;;;;;;5.03;2.88;;;12.00;99.90;;;;;;10088598;28;20041;-59
2022/11/16 01:50:30;;;;;;;5.65;4.13;;;12.00;99.90;;;;;;10063734;28;20049;-59
2022/11/16 01:55:22;;;;;;;5.60;3.72;;;12.00;99.90;;;;;;10073917;28;20041;-60
2022/11/16 02:00:14;;;;;;;5.85;3.13;;;12.00;99.90;;;;;;10097172;28;20033;-60
2022/11/16 02:05:06;;;;;;;7.95;4.20;;;12.00;99.90;;;;;;10079423;28;20025;-60
2022/11/16 02:10:06;;;;;;;5.30;3.75;;;12.10;99.90;;;;;;10094506;28;20127;-59
2022/11/16 02:15:08;;;;;;;5.22;2.88;;;12.10;99.90;;;;;;10098475;28;20116;-60
2022/11/16 02:20:19;;;;;;;4.95;3.20;;;12.10;99.90;;;;;;10085793;28;20024;-60
2022/11/16 02:25:25;;;;;;;5.82;3.53;;;12.20;99.90;;;;;;10091611;28;20021;-61
2022/11/16 02:30:18;;;;;;;7.03;3.25;;;12.10;99.90;;;;;;10085448;28;20022;-60
2022/11/16 02:35:17;;;;;;;7.43;4.47;;;12.10;99.90;;;;;;10078676;28;20053;-59
2022/11/16 02:40:10;;;;;;;7.25;3.72;;;12.10;99.90;;;;;;10089166;28;20029;-60
2022/11/16 02:45:03;;;;;;;4.93;2.97;;;12.20;99.90;;;;;;10077520;28;20060;-60
2022/11/16 02:50:00;;;;;;;5.65;3.30;;;12.20;99.90;;;;;;10087880;28;20052;-59
2022/11/16 02:54:50;;;;;;;;;;;12.20;99.90;;;;;;10068259;28;20293;-59
2022/11/16 02:59:49;;;;;;;4.88;3.30;;;12.20;99.90;;;;;;10066942;28;19996;-59
2022/11/16 03:04:45;;;;;;;5.95;3.30;;;12.20;99.90;;;;;;10092438;28;20458;-60
2022/11/16 03:09:37;;;;;;;;;;;12.10;99.90;;;;;;10085625;28;20036;-59
2022/11/16 03:14:39;;;;;;;4.82;2.45;;;12.10;99.90;;;;;;10091574;28;20310;-59
2022/11/16 03:19:55;;;;;;;4.50;3.15;;;12.10;99.90;;;;;;10090455;28;20033;-59
2022/11/16 03:24:46;;;;;;;4.70;3.05;;;12.10;99.90;;;;;;10087506;28;20029;-59
2022/11/16 03:30:03;;;;;;;6.47;3.15;;;12.00;99.90;;;;;;10078632;28;20049;-59
2022/11/16 03:35:11;;;;;;;5.88;2.80;;;12.00;99.90;;;;;;10065453;28;20082;-61
2022/11/16 03:40:03;;;;;;;7.25;3.63;;;12.00;99.90;;;;;;10087677;28;20328;-59
2022/11/16 03:44:55;;;;;;;5.35;3.50;;;12.00;99.90;;;;;;10089960;28;20315;-59
2022/11/16 03:49:46;;;;;;;5.75;3.17;;;11.90;99.90;;;;;;10078218;28;20033;-60
2022/11/16 03:54:37;;;;;;;6.20;3.50;;;11.90;99.90;;;;;;10078504;28;20247;-59
2022/11/16 03:59:28;;;;;;;7.38;3.53;;;11.90;99.90;;;;;;10078022;28;20041;-59
2022/11/16 04:25:03;;;;;;;5.05;3.78;;;12.00;99.90;;;;;;10091002;28;20098;-59
2022/11/16 04:29:57;;;;;;;6.10;3.50;;;12.00;99.90;;;;;;10109217;28;20166;-60
2022/11/16 04:39:56;;;;;;;6.15;3.75;;;12.00;99.90;;;;;;10095925;28;20110;-59
2022/11/16 04:49:56;;;;;;;6.10;3.45;;;12.00;99.90;;;;;;10106942;28;20119;-60
2022/11/16 04:54:47;;;;;;;5.28;3.13;;;12.10;99.90;;;;;;10089043;28;20032;-60
2022/11/16 04:59:37;;;;;;;6.05;3.45;;;12.00;99.90;;;;;;10094267;28;20037;-59
2022/11/16 05:04:28;;;;;;;6.85;4.38;;;12.00;99.90;;;;;;10096898;28;20376;-60
2022/11/16 05:09:19;;;;;;;6.13;3.35;;;12.20;99.90;;;;;;10100386;28;20028;-59
2022/11/16 05:14:10;;;;;;;5.85;3.00;;;12.20;99.90;;;;;;10101292;28;20967;-58
2022/11/16 05:29:19;;;;;;;4.75;2.38;;;12.10;99.90;;;;;;10090126;28;20274;-60
2022/11/16 05:34:10;;;;;;;4.63;3.45;;;12.10;99.90;;;;;;10076906;28;20661;-60
2022/11/16 05:39:01;;;;;;;6.68;2.60;;;12.00;99.90;;;;;;10087560;28;20281;-60
2022/11/16 05:43:52;;;;;;;5.35;3.22;;;12.00;99.90;;;;;;10089462;28;20024;-61
2022/11/16 05:48:43;;;;;;;5.70;2.38;;;12.10;99.90;;;;;;10072286;28;20100;-60
2022/11/16 05:53:33;;;;;;;5.25;2.17;;;12.10;99.90;;;;;;10094410;28;20029;-60
2022/11/16 05:58:24;;;;;;;3.60;2.42;;;12.10;99.90;;;;;;10095132;28;20337;-61
2022/11/16 06:03:15;;;;;;;4.78;2.70;;;12.00;99.90;;;;;;10067575;28;20104;-60
2022/11/16 06:08:05;;;;;;;3.97;2.80;;;12.00;99.90;;;;;;10082953;28;20272;-62
2022/11/16 06:12:56;;;;;;;5.07;3.22;;;12.00;99.90;;;;;;10083880;28;20021;-60
2022/11/16 06:17:46;;;;;;;3.90;2.70;;;11.90;99.90;;;;;;10081612;28;20033;-60
2022/11/16 06:22:37;;;;;;;4.18;2.58;;;11.90;99.90;;;;;;10093765;28;20028;-61
2022/11/16 06:27:28;;;;;;;5.50;2.53;;;11.90;99.90;;;;;;10090157;28;20310;-60
2022/11/16 06:32:18;;;;;;;4.28;2.75;;;11.80;99.90;;;;;;10099396;28;20467;-59
2022/11/16 06:37:09;;;;;;;6.05;2.90;;;11.70;99.90;;;;;;10087378;28;20072;-59
2022/11/16 06:41:59;;;;;;;5.88;3.67;;;11.70;99.90;;;;;;10099667;28;20044;-59
2022/11/16 06:46:50;;;;;;;4.65;3.05;;;11.70;99.90;;;;;;10075098;28;20124;-59
2022/11/16 06:51:41;;;;;;;4.63;3.03;;;11.60;99.90;;;;;;10094443;28;20363;-59
2022/11/16 06:56:33;;;;;;;4.25;2.55;;;11.60;99.90;;;;;;10078838;28;20072;-59
2022/11/16 07:01:24;;;;;;;3.38;2.22;;;11.70;99.90;;;;;;10071864;28;20108;-58
2022/11/16 07:06:15;;;;;;;3.40;1.92;;;11.70;99.90;;;;;;10088266;28;20059;-60
2022/11/16 07:11:09;;;;;;;4.40;2.47;;;11.70;99.90;;;;;;10073533;28;20048;-61
2022/11/16 07:16:01;;;;;;;4.05;1.67;;;11.80;99.90;;;;;;10089417;28;20084;-60
2022/11/16 07:20:52;;;;;;;2.35;1.70;;;11.90;99.90;;;;;;10088593;28;20101;-60
2022/11/16 07:25:45;;;;;;;3.42;1.90;;;11.90;99.90;;;;;;10073214;28;20592;-62
2022/11/16 07:30:36;;;;;;;2.67;1.63;;;11.90;99.90;;;;;;10076758;28;20026;-61
2022/11/16 07:35:27;;;;;;;2.38;1.20;;;11.80;99.90;;;;;;10071800;28;20049;-60
2022/11/16 07:40:18;;;;;;;4.65;1.92;;;11.80;99.90;;;;;;10069238;28;20025;-58
2022/11/16 07:45:09;;;;;;;3.60;1.77;;;11.80;99.90;;;;;;10061337;28;20029;-56
2022/11/16 07:50:00;;;;;;;3.08;1.40;;;12.00;99.90;;;;;;10064400;28;20025;-60
2022/11/16 07:54:50;;;;;;;5.13;1.95;;;12.10;99.90;;;;;;10061785;28;20021;-60
2022/11/16 07:59:41;;;;;;;2.30;1.40;;;12.20;99.90;;;;;;10064166;28;20042;-62
2022/11/16 08:04:31;;;;;;;3.03;1.25;;;12.30;99.90;;;;;;10066653;28;20128;-61
2022/11/16 08:09:22;;;;;;;1.90;1.17;;;12.30;99.90;;;;;;10065763;28;20526;-60
2022/11/16 08:14:14;;;;;;;2.65;1.38;;;12.30;99.90;;;;;;10057481;28;20034;-62
2022/11/16 08:19:05;;;;;;;1.55;0.80;;;12.30;99.90;;;;;;10058449;28;20049;-62
2022/11/16 08:23:55;;;;;;;1.92;0.90;;;12.20;99.90;;;;;;10064019;28;20100;-60
2022/11/16 08:28:49;;;;;;;1.30;0.75;;;12.20;99.90;;;;;;10069643;28;20061;-62
2022/11/16 08:33:40;;;;;;;1.58;0.88;;;12.30;99.90;;;;;;10078665;28;20512;-62
2022/11/16 08:38:31;;;;;;;2.70;1.13;;;12.30;99.90;;;;;;10065388;28;20029;-61
2022/11/16 08:43:22;;;;;;;5.47;1.20;;;12.40;99.90;;;;;;10077849;28;20010;-63
2022/11/16 08:48:12;;;;;;;2.90;1.08;;;12.60;99.90;;;;;;10079389;28;20449;-60
2022/11/16 08:53:03;;;;;;;2.65;0.95;;;12.70;99.90;;;;;;10075301;28;20025;-63
2022/11/16 08:57:54;;;;;;;2.13;1.40;;;12.90;99.90;;;;;;10071641;28;20323;-59
2022/11/16 09:02:45;;;;;;;2.15;1.10;;;13.00;99.90;;;;;;10074267;28;20017;-62
2022/11/16 09:07:36;;;;;;;1.73;1.27;;;13.00;99.90;;;;;;10078876;28;20513;-60
2022/11/16 09:12:26;;;;;;;4.43;0.90;;;12.90;99.90;;;;;;10068287;28;20044;-60
2022/11/16 09:17:17;;;;;;;1.63;1.02;;;12.70;99.90;;;;;;10081844;28;20029;-61
2022/11/16 09:22:08;;;;;;;4.05;1.13;;;12.70;99.90;;;;;;10087153;28;20031;-60
2022/11/16 09:27:00;;;;;;;3.47;0.95;;;12.60;99.90;;;;;;10063838;28;20507;-62
2022/11/16 09:31:51;;;;;;;2.22;1.17;;;12.60;99.90;;;;;;10076082;28;20016;-61
2022/11/16 09:36:41;;;;;;;2.88;1.10;;;12.80;99.90;;;;;;10056335;28;20458;-61
2022/11/16 09:42:01;;;;;;;4.22;1.10;;;12.90;99.90;;;;;;10073931;28;20151;-66
2022/11/16 09:46:59;;;;;;;3.25;1.00;;;13.10;99.90;;;;;;10071429;28;20686;-63
2022/11/16 09:51:58;;;;;;;1.17;0.70;;;13.10;99.90;;;;;;10069445;28;20025;-64
2022/11/16 09:56:52;;;;;;;3.90;1.02;;;13.20;99.90;;;;;;10074075;28;20076;-64
2022/11/16 10:01:53;;;;;;;1.98;0.95;;;13.30;99.90;;;;;;10064840;28;20056;-64
2022/11/16 10:06:48;;;;;;;2.78;1.17;;;13.50;99.90;;;;;;10068766;28;20481;-63
2022/11/16 10:11:58;;;;;;;1.48;0.90;;;13.60;99.90;;;;;;10069140;28;20112;-65
2022/11/16 10:17:20;;;;;;;1.23;0.60;;;13.90;99.90;;;;;;10073298;28;20061;-61
2022/11/16 10:22:50;;;;;;;4.80;1.25;;;14.00;99.90;;;;;;10061468;28;20040;-61
2022/11/16 10:27:45;;;;;;;1.95;0.70;;;14.10;99.90;;;;;;10065219;28;20033;-63
2022/11/16 10:32:48;;;;;;;3.33;0.90;;;14.40;99.90;;;;;;10073350;28;20491;-60
2022/11/16 10:37:45;;;;;;;2.63;1.30;;;14.40;99.90;;;;;;10067114;28;20603;-68
2022/11/16 10:42:40;;;;;;;2.10;1.10;;;14.60;99.90;;;;;;10080048;28;20018;-64
2022/11/16 10:48:21;;;;;;;2.15;0.70;;;14.70;99.90;;;;;;10078023;28;20104;-65
2022/11/16 10:53:31;;;;;;;6.45;0.90;;;14.80;99.90;;;;;;10080245;28;20022;-66
2022/11/16 10:58:22;;;;;;;4.28;0.98;;;14.90;99.90;;;;;;10074581;28;20102;-65
2022/11/16 11:03:13;;;;;;;2.33;0.80;;;15.10;99.90;;;;;;10078607;28;20433;-58
2022/11/16 11:08:08;;;;;;;3.80;0.85;;;15.10;99.90;;;;;;10076972;28;20034;-59
2022/11/16 11:13:09;;;;;;;1.90;0.73;;;15.20;99.90;;;;;;10071972;28;20021;-59
2022/11/16 11:18:22;;;;;;;4.25;0.77;;;15.10;99.90;;;;;;10063509;28;20082;-61
2022/11/16 11:23:22;;;;;;;2.17;0.55;;;15.20;99.90;;;;;;10063765;28;20025;-60
2022/11/16 11:28:27;;;;;;;1.88;1.30;;;15.30;99.90;;;;;;10068823;28;20119;-60
2022/11/16 11:33:20;;;;;;;2.17;1.45;;;15.40;99.90;;;;;;10063951;28;20506;-59
2022/11/16 11:38:13;;;;;;;6.25;1.25;;;15.50;99.90;;;;;;10060564;28;20048;-63
2022/11/16 11:43:19;;;;;;;2.55;1.30;;;15.50;99.90;;;;;;10090890;28;20031;-62
2022/11/16 11:48:28;;;;;;;2.63;0.80;;;15.60;99.90;;;;;;10078917;28;20035;-62
2022/11/16 11:53:57;;;;;;;4.63;2.08;;;15.50;99.90;;;;;;10058896;28;20026;-63
2022/11/16 11:58:49;;;;;;;3.75;1.40;;;15.40;99.90;;;;;;10067750;28;20462;-61
2022/11/16 12:04:08;;;;;;;3.97;1.25;;;15.60;99.90;;;;;;10081107;28;20766;-60
2022/11/16 12:09:27;;;;;;;3.85;0.90;;;15.90;99.90;;;;;;10042167;28;20044;-61
2022/11/16 12:14:53;;;;;;;3.08;0.75;;;16.00;99.90;;;;;;10069749;28;20048;-61
2022/11/16 12:20:11;;;;;;;;;;;15.90;99.90;;;;;;10074239;28;20112;-61
2022/11/16 12:25:26;;;;;;;4.68;1.40;;;15.90;99.90;;;;;;10073589;28;19919;-61
2022/11/16 12:30:22;;;;;;;5.45;1.25;;;16.00;99.90;;;;;;10073541;28;20100;-61
2022/11/16 12:35:46;;;;;;;2.60;1.00;;;15.70;99.90;;;;;;10064786;28;20056;-60
2022/11/16 12:40:52;;;;;;;3.30;0.82;;;15.30;99.90;;;;;;10060816;28;20498;-61
2022/11/16 12:46:09;;;;;;;1.58;0.75;;;15.30;99.90;;;;;;10058527;28;20028;-61
2022/11/16 12:51:14;;;;;;;2.78;0.70;;;15.30;99.90;;;;;;10077234;28;21001;-60
2022/11/16 12:56:11;;;;;;;2.13;1.30;;;15.30;99.90;;;;;;10087411;28;20037;-59
2022/11/16 13:01:36;;;;;;;3.85;0.80;;;15.10;99.90;;;;;;10077387;28;20311;-60
2022/11/16 13:06:33;;;;;;;3.43;0.87;;;15.30;99.90;;;;;;10065501;28;20041;-61
2022/11/16 13:11:36;;;;;;;1.98;1.10;;;15.40;99.90;;;;;;10073466;28;20017;-59
2022/11/16 13:16:28;;;;;;;1.80;1.15;;;15.60;99.90;;;;;;10069664;28;20037;-59
2022/11/16 13:21:42;;;;;;;2.83;0.90;;;15.80;99.90;;;;;;10068394;28;20212;-59
2022/11/16 13:26:53;;;;;;;3.85;0.88;;;16.00;99.90;;;;;;10075754;28;20083;-60
2022/11/16 13:31:56;;;;;;;1.52;0.90;;;16.10;99.90;;;;;;10075237;28;20470;-59
2022/11/16 13:36:47;;;;;;;1.17;0.80;;;16.30;99.90;;;;;;10060492;28;20057;-60
2022/11/16 13:41:43;;;;;;;2.90;1.10;;;16.30;99.90;;;;;;10071194;28;20086;-61
2022/11/16 13:46:47;;;;;;;3.17;0.80;;;16.20;99.90;;;;;;10076586;28;20033;-61
2022/11/16 13:51:38;;;;;;;3.50;0.90;;;16.00;99.90;;;;;;10083734;28;20496;-61
2022/11/16 13:56:47;;;;;;;3.75;0.75;;;15.80;99.90;;;;;;10074061;28;20077;-60
2022/11/16 14:01:56;;;;;;;1.67;0.95;;;15.70;99.90;;;;;;10076012;28;20026;-60
2022/11/16 14:06:47;;;;;;;2.83;1.08;;;15.70;99.90;;;;;;10075318;28;20033;-60
2022/11/16 14:11:38;;;;;;;3.80;1.05;;;15.50;99.90;;;;;;10076491;28;20025;-59
2022/11/16 14:16:31;;;;;;;6.00;1.05;;;15.30;99.90;;;;;;10064939;28;20044;-61
2022/11/16 14:21:25;;;;;;;2.75;0.98;;;15.20;99.90;;;;;;10058789;28;20017;-62
2022/11/16 14:26:34;;;;;;;3.15;0.90;;;15.20;99.90;;;;;;10061781;28;20013;-60
2022/11/16 14:31:29;;;;;;;1.63;0.85;;;15.20;99.90;;;;;;10063987;28;20514;-60
2022/11/16 14:36:43;;;;;;;4.43;0.88;;;15.00;99.90;;;;;;10067780;28;20567;-58
2022/11/16 14:41:33;;;;;;;1.65;0.80;;;15.00;99.90;;;;;;10064738;28;20064;-60
2022/11/16 14:46:28;;;;;;;1.75;0.70;;;15.00;99.90;;;;;;10064711;28;20057;-59
2022/11/16 14:51:24;;;;;;;3.97;1.05;;;15.00;99.90;;;;;;10076582;28;20021;-58
2022/11/16 14:56:16;;;;;;;3.03;1.42;;;15.00;99.90;;;;;;10078402;28;20047;-58
2022/11/16 15:01:13;;;;;;;1.33;0.90;;;15.00;99.90;;;;;;10073033;28;20025;-58
2022/11/16 15:06:06;;;;;;;4.25;1.42;;;14.90;99.90;;;;;;10070931;28;20043;-58
2022/11/16 15:10:58;;;;;;;1.98;1.00;;;14.90;99.90;;;;;;10082358;28;20093;-60
2022/11/16 15:16:09;;;;;;;1.55;0.77;;;14.70;99.90;;;;;;10077859;28;20033;-67
2022/11/16 15:21:00;;;;;;;2.92;0.60;;;14.70;99.90;;;;;;10083304;28;20029;-70
2022/11/16 15:25:55;;;;;;;1.77;0.85;;;14.60;99.90;;;;;;10079586;28;20021;-60
2022/11/16 15:30:50;;;;;;;1.70;0.82;;;14.60;99.90;;;;;;10081132;28;20021;-59
2022/11/16 15:35:41;;;;;;;1.40;0.60;;;14.50;99.90;;;;;;10088777;28;20499;-63
2022/11/16 15:40:33;;;;;;;3.97;1.33;;;14.40;99.90;;;;;;10086191;28;20037;-59
2022/11/16 15:45:25;;;;;;;1.58;0.63;;;14.40;99.90;;;;;;10079213;28;20090;-60
2022/11/16 15:50:18;;;;;;;3.50;0.95;;;14.30;99.90;;;;;;10083910;28;20029;-60
2022/11/16 15:55:33;;;;;;;2.03;1.20;;;14.20;99.90;;;;;;10082846;28;20058;-61
2022/11/16 16:00:25;;;;;;;2.72;0.80;;;14.20;99.90;;;;;;10067360;28;20104;-60
2022/11/16 16:05:31;;;;;;;1.42;0.88;;;14.20;99.90;;;;;;10079938;28;20040;-60
2022/11/16 16:10:23;;;;;;;1.02;0.65;;;14.20;99.90;;;;;;10079240;28;20314;-60
2022/11/16 16:15:22;;;;;;;1.63;0.75;;;14.20;99.90;;;;;;10087351;28;20040;-59
2022/11/16 16:20:19;;;;;;;3.67;0.82;;;14.20;99.90;;;;;;10088897;28;20459;-59
2022/11/16 16:25:45;;;;;;;2.53;0.90;;;14.20;99.90;;;;;;10094319;28;20091;-59
2022/11/16 16:30:35;;;;;;;3.22;0.90;;;14.20;99.90;;;;;;9990865;28;20087;-61
2022/11/16 16:35:27;;;;;;;2.47;0.95;;;14.20;99.90;;;;;;10066656;28;20045;-58
2022/11/16 16:40:18;;;;;;;2.42;0.80;;;14.20;99.90;;;;;;10076756;28;20127;-58
2022/11/16 16:45:19;;;;;;;4.13;1.00;;;14.20;99.90;;;;;;10067619;28;20115;-59
2022/11/16 16:50:10;;;;;;;4.30;0.95;;;14.20;99.90;;;;;;10090968;28;20033;-59
2022/11/16 16:55:01;;;;;;;2.25;1.05;;;14.10;99.90;;;;;;10073382;28;20579;-58
2022/11/16 16:59:51;;;;;;;2.83;1.20;;;14.10;99.90;;;;;;10065730;28;20083;-60
2022/11/16 17:04:42;;;;;;;4.80;0.95;;;14.10;99.90;;;;;;10076925;28;20029;-60
2022/11/16 17:09:33;;;;;;;2.78;1.55;;;13.90;99.90;;;;;;10090387;28;20017;-61
2022/11/16 17:14:24;;;;;;;1.80;1.27;;;13.90;99.90;;;;;;10086182;28;20029;-65
2022/11/16 17:19:15;;;;;;;3.22;1.10;;;13.80;99.90;;;;;;10076854;28;20042;-58
2022/11/16 17:24:05;;;;;;;3.90;1.52;;;13.80;99.90;;;;;;10071186;28;20025;-58
2022/11/16 17:28:57;;;;;;;4.20;1.63;;;13.70;99.90;;;;;;10087144;28;20029;-64
2022/11/16 17:33:47;;;;;;;2.22;1.05;;;13.60;99.90;;;;;;10068595;28;20048;-59
2022/11/16 17:38:38;;;;;;;2.28;1.02;;;13.50;99.90;;;;;;10072207;28;20566;-60
2022/11/16 17:43:29;;;;;;;3.25;1.30;;;13.50;99.90;;;;;;10058281;28;20032;-57
2022/11/16 17:48:20;;;;;;;3.22;1.55;;;13.40;99.90;;;;;;10074892;28;20020;-70
2022/11/16 17:53:11;;;;;;;4.82;1.48;;;13.30;99.90;;;;;;10072932;28;20486;-64
2022/11/16 17:58:01;;;;;;;3.60;1.48;;;13.20;99.90;;;;;;10061886;28;20037;-66
2022/11/16 18:02:52;;;;;;;3.53;1.60;;;13.10;99.90;;;;;;10073646;28;20057;-59
2022/11/16 18:07:43;;;;;;;4.18;1.95;;;13.00;99.90;;;;;;10079463;28;20102;-62
2022/11/16 18:12:33;;;;;;;4.05;2.00;;;12.90;99.90;;;;;;10071081;28;20031;-61
2022/11/16 18:17:24;;;;;;;5.07;1.60;;;12.80;99.90;;;;;;10057661;28;20040;-62
2022/11/16 18:22:15;;;;;;;4.93;1.85;;;12.80;99.90;;;;;;10084990;28;20376;-67
2022/11/16 18:27:05;;;;;;;1.80;1.15;;;12.70;99.90;;;;;;10072233;28;20500;-65
2022/11/16 18:31:56;;;;;;;2.47;1.35;;;12.60;99.90;;;;;;10072696;28;20022;-63
2022/11/16 18:36:49;;;;;;;3.97;1.40;;;12.60;99.90;;;;;;10065973;28;20499;-65
2022/11/16 18:41:44;;;;;;;3.58;1.77;;;12.60;99.90;;;;;;10073861;28;20423;-65
2022/11/16 18:46:35;;;;;;;;;;;12.60;99.90;;;;;;10082558;28;20399;-59
2022/11/16 18:51:27;;;;;;;4.15;1.38;;;12.50;99.90;;;;;;10063592;28;19913;-60
2022/11/16 18:56:18;;;;;;;3.78;1.92;;;12.60;99.90;;;;;;10065564;28;20879;-64
2022/11/16 19:01:12;;;;;;;8.10;3.38;;;12.50;99.90;;;;;;10063466;28;20503;-64
2022/11/16 19:06:08;;;;;;;7.95;3.38;;;12.50;99.90;;;;;;10061364;28;20033;-60
2022/11/16 19:11:10;;;;;;;4.78;2.28;;;12.40;99.90;;;;;;10059468;28;20529;-62
2022/11/16 19:16:01;;;;;;;5.05;2.38;;;12.40;99.90;;;;;;10069962;28;20400;-61
2022/11/16 19:20:51;;;;;;;4.95;2.25;;;12.40;99.90;;;;;;10065724;28;20028;-63
2022/11/16 19:25:42;;;;;;;8.60;3.08;;;12.30;99.90;;;;;;10059509;28;20079;-63
2022/11/16 19:30:33;;;;;;;6.18;2.53;;;12.30;99.90;;;;;;10063147;28;20048;-63
2022/11/16 19:35:24;;;;;;;8.93;2.88;;;12.30;99.90;;;;;;10056428;28;20048;-64
2022/11/16 19:40:15;;;;;;;4.00;2.55;;;12.40;99.90;;;;;;10067507;28;20061;-70
2022/11/16 19:45:06;;;;;;;6.88;3.38;;;12.40;99.90;;;;;;10071109;28;20061;-71
2022/11/16 19:50:53;;;;;;;5.15;2.50;;;12.40;99.90;;;;;;10075239;28;20025;-64
2022/11/16 19:56:10;;;;;;;;;;;;;;;;;;;;;
2022/11/16 20:18:28;;;;;;;4.73;2.17;;;12.40;99.90;;;;;;10066451;28;20055;-63
2022/11/16 20:23:46;;;;;;;3.92;2.20;;;12.50;99.90;;;;;;10071767;28;20021;-59
2022/11/16 20:28:39;;;;;;;7.80;2.95;;;12.50;99.90;;;;;;10063065;28;20146;-59
2022/11/16 20:34:12;;;;;;;5.97;3.72;;;12.50;99.90;;;;;;10067581;28;20057;-59
2022/11/16 20:39:19;;;;;;;4.82;3.38;;;12.50;99.90;;;;;;10072579;28;20110;-61
2022/11/16 20:44:24;;;;;;;4.75;3.17;;;12.60;99.90;;;;;;10070578;28;20042;-63
2022/11/16 20:55:09;;;;;;;5.43;3.30;;;12.60;99.90;;;;;;10064489;28;20044;-62
2022/11/16 21:00:07;;;;;;;6.05;3.20;;;12.60;99.90;;;;;;10079114;28;20033;-62
2022/11/16 21:05:33;;;;;;;9.15;3.55;;;12.60;99.90;;;;;;10073666;28;20542;-61
2022/11/16 21:10:34;;;;;;;5.55;3.00;;;12.60;99.90;;;;;;10079856;28;20103;-61
2022/11/16 21:15:33;;;;;;;6.40;2.67;;;12.50;99.90;;;;;;10084629;28;20033;-64
2022/11/16 21:20:35;;;;;;;4.88;2.42;;;12.50;99.90;;;;;;10093033;28;20079;-63
2022/11/16 21:25:28;;;;;;;5.53;2.53;;;12.60;99.90;;;;;;10095326;28;20100;-64
2022/11/16 21:30:25;;;;;;;6.38;2.95;;;12.60;99.90;;;;;;10088204;28;20036;-63
2022/11/16 21:35:19;;;;;;;9.90;5.15;;;12.70;99.90;;;;;;10072769;28;20040;-64
2022/11/16 21:40:42;;;;;;;11.50;3.53;;;12.70;99.90;;;;;;10073726;28;20326;-61
2022/11/16 21:45:59;;;;;;;4.95;2.53;;;12.70;99.90;;;;;;10082991;28;20038;-63
2022/11/16 21:51:33;;;;;;;7.57;3.22;;;12.70;99.90;;;;;;10075007;28;20467;-61
2022/11/16 21:56:27;;;;;;;4.47;2.42;;;12.60;99.90;;;;;;10058557;28;20049;-61
2022/11/16 22:01:58;;;;;;;5.00;3.72;;;12.70;99.90;;;;;;10068620;28;20048;-63
2022/11/16 22:12:25;;;;;;;5.32;2.42;;;12.60;99.90;;;;;;10074817;28;20036;-61
2022/11/16 22:17:31;;;;;;;6.30;2.50;;;12.60;99.90;;;;;;10069099;28;20052;-61
2022/11/16 22:22:49;;;;;;;4.05;2.33;;;12.60;99.90;;;;;;10074434;28;20037;-60
2022/11/16 22:27:55;;;;;;;5.00;2.10;;;12.50;99.90;;;;;;10076781;28;20036;-63
2022/11/16 22:32:49;;;;;;;;;;;12.40;99.90;;;;;;10059698;28;20033;-61
2022/11/16 22:37:46;;;;;;;4.32;1.90;;;12.40;99.90;;;;;;10074274;28;20229;-61
2022/11/16 22:42:40;;;;;;;3.45;1.75;;;12.40;99.90;;;;;;10072026;28;20033;-61
2022/11/16 22:47:37;;;;;;;3.85;1.95;;;12.40;99.90;;;;;;10075654;28;20049;-61
2022/11/16 22:52:58;;;;;;;5.78;2.20;;;12.30;99.90;;;;;;10083961;28;20510;-60
2022/11/16 22:57:52;;;;;;;4.90;3.63;;;12.30;99.90;;;;;;10066481;28;20131;-61
2022/11/16 23:03:06;;;;;;;5.32;2.55;;;12.20;99.90;;;;;;10084738;28;20021;-61
2022/11/16 23:08:15;;;;;;;5.28;2.58;;;12.20;99.90;;;;;;10081232;28;20025;-60
2022/11/16 23:18:27;;;;;;;5.68;1.85;;;12.20;99.90;;;;;;10080395;28;20518;-62
2022/11/16 23:29:06;;;;;;;5.67;3.57;;;12.10;99.90;;;;;;10067574;28;20095;-61
2022/11/16 23:34:15;;;;;;;3.63;2.58;;;12.00;99.90;;;;;;10070007;28;20059;-61
2022/11/16 23:39:10;;;;;;;4.40;2.33;;;12.00;99.90;;;;;;10080380;28;20124;-61
2022/11/16 23:44:18;;;;;;;3.47;1.85;;;12.10;99.90;;;;;;10077968;28;20026;-67
2022/11/16 23:49:15;;;;;;;4.90;2.28;;;12.00;99.90;;;;;;10076937;28;21582;-64
2022/11/16 23:54:28;;;;;;;7.57;3.55;;;12.00;99.90;;;;;;10073879;28;20205;-63
2022/11/16 23:59:29;;;;;;;5.38;2.30;;;12.00;99.90;;;;;;10091739;28;20037;-64
